createdAt,value
2017-05-29T00:00:52.930Z,943.6
2017-05-29T00:02:01.018Z,943.5
2017-05-29T00:03:09.107Z,943.5
2017-05-29T00:04:17.406Z,943.5
2017-05-29T00:05:25.393Z,943.5
2017-05-29T00:06:33.423Z,943.5
2017-05-29T00:07:41.453Z,943.5
2017-05-29T00:08:49.542Z,943.5
2017-05-29T00:09:57.752Z,943.5
2017-05-29T00:11:05.718Z,943.5
2017-05-29T00:12:13.806Z,943.5
2017-05-29T00:13:21.902Z,943.5
2017-05-29T00:14:29.988Z,943.5
2017-05-29T00:15:38.196Z,943.5
2017-05-29T00:16:46.167Z,943.4
2017-05-29T00:17:54.292Z,943.4
2017-05-29T00:19:02.340Z,943.4
2017-05-29T00:20:10.430Z,943.4
2017-05-29T00:21:18.576Z,943.4
2017-05-29T00:22:26.729Z,943.4
2017-05-29T00:23:34.696Z,943.4
2017-05-29T00:24:42.783Z,943.4
2017-05-29T00:25:50.872Z,943.3
2017-05-29T00:26:59.080Z,943.4
2017-05-29T00:28:07.048Z,943.3
2017-05-29T00:29:15.227Z,943.3
2017-05-29T00:30:23.224Z,943.3
2017-05-29T00:31:31.312Z,943.3
2017-05-29T00:32:39.455Z,943.3
2017-05-29T00:33:47.487Z,943.3
2017-05-29T00:34:55.573Z,943.3
2017-05-29T00:36:03.660Z,943.3
2017-05-29T00:37:11.751Z,943.3
2017-05-29T00:38:19.956Z,943.3
2017-05-29T00:39:27.924Z,943.2
2017-05-29T00:40:36.106Z,943.2
2017-05-29T00:41:44.104Z,943.2
2017-05-29T00:42:52.195Z,943.2
2017-05-29T00:44:00.397Z,943.2
2017-05-29T00:45:08.365Z,943.2
2017-05-29T00:46:16.643Z,943.2
2017-05-29T00:47:24.542Z,943.1
2017-05-29T00:48:32.627Z,943.2
2017-05-29T00:49:40.772Z,943.2
2017-05-29T00:50:48.804Z,943.1
2017-05-29T00:51:56.893Z,943.1
2017-05-29T00:53:05.130Z,943.1
2017-05-29T00:54:13.188Z,943.1
2017-05-29T00:55:21.273Z,943.1
2017-05-29T00:56:29.242Z,943.1
2017-05-29T00:57:37.329Z,943.1
2017-05-29T00:58:45.486Z,943.1
2017-05-29T00:59:53.504Z,943.1
2017-05-29T01:01:01.650Z,943.1
2017-05-29T01:02:09.683Z,943.1
2017-05-29T01:03:17.781Z,943.1
2017-05-29T01:04:25.869Z,943.1
2017-05-29T01:05:33.981Z,943.1
2017-05-29T01:06:42.165Z,943.0
2017-05-29T01:07:50.130Z,943.1
2017-05-29T01:08:58.224Z,943.0
2017-05-29T01:10:06.432Z,943.1
2017-05-29T01:11:14.405Z,943.0
2017-05-29T01:12:22.543Z,943.1
2017-05-29T01:13:30.578Z,943.0
2017-05-29T01:14:38.663Z,943.0
2017-05-29T01:15:46.751Z,943.0
2017-05-29T01:16:54.841Z,943.0
2017-05-29T01:18:02.983Z,943.0
2017-05-29T01:19:11.014Z,943.1
2017-05-29T01:20:19.100Z,943.0
2017-05-29T01:21:27.311Z,943.0
2017-05-29T01:22:35.405Z,943.0
2017-05-29T01:23:43.501Z,943.0
2017-05-29T01:24:51.471Z,943.0
2017-05-29T01:25:59.675Z,943.0
2017-05-29T01:27:07.643Z,942.9
2017-05-29T01:28:15.759Z,942.9
2017-05-29T01:29:23.880Z,942.9
2017-05-29T01:30:31.910Z,942.9
2017-05-29T01:31:39.996Z,942.9
2017-05-29T01:32:48.087Z,942.9
2017-05-29T01:33:56.178Z,942.9
2017-05-29T01:35:04.355Z,942.8
2017-05-29T01:36:12.352Z,942.8
2017-05-29T01:37:20.438Z,942.9
2017-05-29T01:38:28.522Z,942.8
2017-05-29T01:39:36.611Z,942.8
2017-05-29T01:40:44.817Z,942.8
2017-05-29T01:41:52.905Z,942.8
2017-05-29T01:43:00.877Z,942.8
2017-05-29T01:44:08.961Z,942.8
2017-05-29T01:45:17.050Z,942.8
2017-05-29T01:46:25.202Z,942.8
2017-05-29T01:47:33.251Z,942.8
2017-05-29T01:48:41.310Z,942.8
2017-05-29T01:49:49.400Z,942.7
2017-05-29T01:50:57.488Z,942.7
2017-05-29T01:52:05.697Z,942.7
2017-05-29T01:53:13.663Z,942.7
2017-05-29T01:54:21.764Z,942.7
2017-05-29T01:55:29.845Z,942.6
2017-05-29T01:56:37.933Z,942.6
2017-05-29T01:57:46.139Z,942.6
2017-05-29T01:58:54.164Z,942.6
2017-05-29T02:00:02.204Z,942.6
2017-05-29T02:01:10.289Z,942.6
2017-05-29T02:02:18.375Z,942.6
2017-05-29T02:03:26.654Z,942.6
2017-05-29T02:04:34.612Z,942.6
2017-05-29T02:05:42.640Z,942.6
2017-05-29T02:06:50.734Z,942.6
2017-05-29T02:07:58.821Z,942.7
2017-05-29T02:09:06.960Z,942.7
2017-05-29T02:10:15.117Z,942.7
2017-05-29T02:11:23.080Z,942.7
2017-05-29T02:12:31.167Z,942.7
2017-05-29T02:13:39.373Z,942.7
2017-05-29T02:14:47.461Z,942.6
2017-05-29T02:15:55.464Z,942.6
2017-05-29T02:17:03.563Z,942.6
2017-05-29T02:18:11.604Z,942.6
2017-05-29T02:19:19.692Z,942.6
2017-05-29T02:20:27.900Z,942.6
2017-05-29T02:21:35.870Z,942.6
2017-05-29T02:22:43.984Z,942.7
2017-05-29T02:23:52.040Z,942.6
2017-05-29T02:25:00.127Z,942.6
2017-05-29T02:26:08.342Z,942.6
2017-05-29T02:27:16.303Z,942.6
2017-05-29T02:28:24.392Z,942.7
2017-05-29T02:29:32.598Z,942.6
2017-05-29T02:30:40.574Z,942.7
2017-05-29T02:31:48.713Z,942.6
2017-05-29T02:32:56.742Z,942.6
2017-05-29T02:34:04.856Z,942.6
2017-05-29T02:35:12.924Z,942.6
2017-05-29T02:36:21.009Z,942.6
2017-05-29T02:37:29.155Z,942.6
2017-05-29T02:38:37.190Z,942.6
2017-05-29T02:39:45.281Z,942.6
2017-05-29T02:40:53.364Z,942.6
2017-05-29T02:42:01.454Z,942.6
2017-05-29T02:43:09.664Z,942.6
2017-05-29T02:44:17.630Z,942.6
2017-05-29T02:45:25.998Z,942.6
2017-05-29T02:46:33.805Z,942.6
2017-05-29T02:47:41.894Z,942.6
2017-05-29T02:48:50.037Z,942.6
2017-05-29T02:49:58.068Z,942.6
2017-05-29T02:51:06.182Z,942.6
2017-05-29T02:52:14.377Z,942.6
2017-05-29T02:53:22.331Z,942.6
2017-05-29T02:54:30.471Z,942.6
2017-05-29T02:55:38.509Z,942.6
2017-05-29T02:56:46.594Z,942.6
2017-05-29T02:57:54.681Z,942.6
2017-05-29T02:59:02.770Z,942.6
2017-05-29T03:00:10.975Z,942.6
2017-05-29T03:01:19.125Z,942.6
2017-05-29T03:02:27.029Z,942.6
2017-05-29T03:03:35.176Z,942.6
2017-05-29T03:04:43.277Z,942.6
2017-05-29T03:05:51.349Z,942.6
2017-05-29T03:06:59.383Z,942.5
2017-05-29T03:08:07.468Z,942.6
2017-05-29T03:09:15.556Z,942.6
2017-05-29T03:10:23.644Z,942.6
2017-05-29T03:11:31.785Z,942.6
2017-05-29T03:12:39.818Z,942.6
2017-05-29T03:13:47.908Z,942.6
2017-05-29T03:14:55.994Z,942.6
2017-05-29T03:16:04.082Z,942.6
2017-05-29T03:17:12.289Z,942.6
2017-05-29T03:18:20.257Z,942.6
2017-05-29T03:19:28.342Z,942.6
2017-05-29T03:20:36.625Z,942.6
2017-05-29T03:21:44.520Z,942.6
2017-05-29T03:22:52.661Z,942.7
2017-05-29T03:24:00.694Z,942.7
2017-05-29T03:25:08.781Z,942.7
2017-05-29T03:26:16.871Z,942.7
2017-05-29T03:27:24.955Z,942.7
2017-05-29T03:28:33.163Z,942.7
2017-05-29T03:29:41.130Z,942.7
2017-05-29T03:30:49.217Z,942.7
2017-05-29T03:31:57.306Z,942.7
2017-05-29T03:33:05.677Z,942.7
2017-05-29T03:34:13.734Z,942.6
2017-05-29T03:35:21.568Z,942.7
2017-05-29T03:36:29.656Z,942.7
2017-05-29T03:37:37.750Z,942.7
2017-05-29T03:38:45.835Z,942.7
2017-05-29T03:39:54.172Z,942.7
2017-05-29T03:41:02.008Z,942.6
2017-05-29T03:42:10.096Z,942.6
2017-05-29T03:43:18.187Z,942.6
2017-05-29T03:44:26.273Z,942.6
2017-05-29T03:45:34.498Z,942.6
2017-05-29T03:46:42.537Z,942.6
2017-05-29T03:47:50.533Z,942.6
2017-05-29T03:48:58.741Z,942.6
2017-05-29T03:50:06.706Z,942.7
2017-05-29T03:51:14.918Z,942.7
2017-05-29T03:52:22.907Z,942.7
2017-05-29T03:53:30.971Z,942.7
2017-05-29T03:54:39.061Z,942.7
2017-05-29T03:55:47.147Z,942.7
2017-05-29T03:56:55.355Z,942.7
2017-05-29T03:58:03.320Z,942.7
2017-05-29T03:59:11.408Z,942.7
2017-05-29T04:00:19.496Z,942.7
2017-05-29T04:01:27.587Z,942.7
2017-05-29T04:02:35.976Z,942.7
2017-05-29T04:03:43.951Z,942.7
2017-05-29T04:04:51.903Z,942.7
2017-05-29T04:05:59.934Z,942.8
2017-05-29T04:07:08.020Z,942.7
2017-05-29T04:08:16.233Z,942.8
2017-05-29T04:09:24.340Z,942.8
2017-05-29T04:10:32.296Z,942.8
2017-05-29T04:11:40.369Z,942.8
2017-05-29T04:12:48.460Z,942.8
2017-05-29T04:13:56.601Z,942.8
2017-05-29T04:15:04.635Z,942.8
2017-05-29T04:16:12.721Z,942.8
2017-05-29T04:17:20.811Z,942.8
2017-05-29T04:18:29.177Z,942.8
2017-05-29T04:19:37.107Z,942.8
2017-05-29T04:20:45.190Z,942.8
2017-05-29T04:21:53.185Z,942.8
2017-05-29T04:23:01.245Z,942.8
2017-05-29T04:24:09.330Z,942.8
2017-05-29T04:25:17.475Z,942.8
2017-05-29T04:26:25.505Z,942.8
2017-05-29T04:27:33.594Z,942.8
2017-05-29T04:28:41.681Z,942.8
2017-05-29T04:29:49.767Z,942.8
2017-05-29T04:30:57.975Z,942.8
2017-05-29T04:32:06.129Z,942.8
2017-05-29T04:33:14.031Z,942.8
2017-05-29T04:34:22.117Z,942.8
2017-05-29T04:35:30.204Z,942.8
2017-05-29T04:36:38.411Z,942.8
2017-05-29T04:37:46.376Z,942.8
2017-05-29T04:38:54.641Z,942.8
2017-05-29T04:40:02.552Z,942.8
2017-05-29T04:41:10.639Z,942.8
2017-05-29T04:42:18.850Z,942.8
2017-05-29T04:43:26.873Z,942.9
2017-05-29T04:44:35.011Z,942.8
2017-05-29T04:45:42.987Z,942.8
2017-05-29T04:46:51.085Z,942.9
2017-05-29T04:47:59.283Z,942.8
2017-05-29T04:49:07.290Z,942.8
2017-05-29T04:50:15.389Z,942.8
2017-05-29T04:51:23.488Z,942.8
2017-05-29T04:52:31.630Z,942.8
2017-05-29T04:53:39.717Z,942.8
2017-05-29T04:54:47.685Z,942.8
2017-05-29T04:55:55.772Z,942.8
2017-05-29T04:57:03.860Z,942.8
2017-05-29T04:58:11.945Z,942.8
2017-05-29T04:59:20.087Z,942.8
2017-05-29T05:00:28.130Z,942.8
2017-05-29T05:01:36.216Z,942.8
2017-05-29T05:02:44.300Z,942.9
2017-05-29T05:03:52.387Z,942.8
2017-05-29T05:05:01.214Z,942.9
2017-05-29T05:06:08.561Z,942.9
2017-05-29T05:07:16.728Z,942.9
2017-05-29T05:08:24.964Z,942.9
2017-05-29T05:09:32.823Z,942.9
2017-05-29T05:10:41.031Z,942.9
2017-05-29T05:11:48.999Z,942.9
2017-05-29T05:12:57.086Z,942.9
2017-05-29T05:14:05.320Z,942.9
2017-05-29T05:15:13.259Z,942.8
2017-05-29T05:16:21.467Z,942.8
2017-05-29T05:17:29.432Z,942.8
2017-05-29T05:18:37.518Z,942.8
2017-05-29T05:19:45.606Z,942.8
2017-05-29T05:20:53.693Z,942.8
2017-05-29T05:22:01.901Z,942.8
2017-05-29T05:23:09.865Z,942.8
2017-05-29T05:24:18.009Z,942.9
2017-05-29T05:25:26.039Z,942.8
2017-05-29T05:26:34.161Z,942.8
2017-05-29T05:27:42.339Z,942.9
2017-05-29T05:28:50.299Z,942.8
2017-05-29T05:29:58.391Z,942.8
2017-05-29T05:31:06.474Z,942.8
2017-05-29T05:32:14.564Z,942.8
2017-05-29T05:33:22.705Z,942.8
2017-05-29T05:34:30.736Z,942.8
2017-05-29T05:35:38.826Z,942.8
2017-05-29T05:36:46.908Z,942.8
2017-05-29T05:37:54.995Z,942.8
2017-05-29T05:39:03.211Z,942.8
2017-05-29T05:40:11.291Z,942.8
2017-05-29T05:41:19.259Z,942.8
2017-05-29T05:42:27.347Z,942.8
2017-05-29T05:43:35.608Z,942.8
2017-05-29T05:44:43.574Z,942.8
2017-05-29T05:45:51.605Z,942.8
2017-05-29T05:46:59.701Z,942.8
2017-05-29T05:48:07.787Z,942.8
2017-05-29T05:49:15.992Z,942.8
2017-05-29T05:50:24.206Z,942.7
2017-05-29T05:51:32.055Z,942.7
2017-05-29T05:52:40.137Z,942.7
2017-05-29T05:53:48.225Z,942.7
2017-05-29T05:54:56.309Z,942.7
2017-05-29T05:56:04.608Z,942.7
2017-05-29T05:57:12.482Z,942.7
2017-05-29T05:58:20.569Z,942.7
2017-05-29T05:59:28.671Z,942.8
2017-05-29T06:00:36.750Z,942.8
2017-05-29T06:01:45.033Z,942.7
2017-05-29T06:02:52.943Z,942.7
2017-05-29T06:04:01.014Z,942.7
2017-05-29T06:05:09.099Z,942.7
2017-05-29T06:06:17.186Z,942.7
2017-05-29T06:07:25.399Z,942.7
2017-05-29T06:08:33.494Z,942.8
2017-05-29T06:09:41.451Z,942.7
2017-05-29T06:10:49.541Z,942.8
2017-05-29T06:11:57.683Z,942.8
2017-05-29T06:13:05.839Z,942.8
2017-05-29T06:14:13.883Z,942.8
2017-05-29T06:15:21.890Z,942.8
2017-05-29T06:16:29.981Z,942.8
2017-05-29T06:17:38.066Z,942.8
2017-05-29T06:18:46.271Z,942.8
2017-05-29T06:19:54.265Z,942.8
2017-05-29T06:21:02.365Z,942.8
2017-05-29T06:22:10.415Z,942.8
2017-05-29T06:23:18.499Z,942.8
2017-05-29T06:24:26.645Z,942.8
2017-05-29T06:25:34.674Z,942.8
2017-05-29T06:26:42.764Z,942.8
2017-05-29T06:27:50.969Z,942.8
2017-05-29T06:28:58.942Z,942.8
2017-05-29T06:30:07.145Z,942.8
2017-05-29T06:31:15.118Z,942.8
2017-05-29T06:32:23.201Z,942.8
2017-05-29T06:33:31.287Z,942.8
2017-05-29T06:34:39.372Z,942.8
2017-05-29T06:35:47.585Z,942.8
2017-05-29T06:36:55.575Z,942.8
2017-05-29T06:38:03.645Z,942.8
2017-05-29T06:39:11.727Z,942.8
2017-05-29T06:40:19.814Z,942.8
2017-05-29T06:41:28.023Z,942.8
2017-05-29T06:42:35.987Z,942.8
2017-05-29T06:43:44.290Z,942.8
2017-05-29T06:44:52.162Z,942.8
2017-05-29T06:46:00.250Z,942.8
2017-05-29T06:47:08.458Z,942.8
2017-05-29T06:48:16.426Z,942.7
2017-05-29T06:49:24.580Z,942.8
2017-05-29T06:50:32.600Z,942.8
2017-05-29T06:51:40.692Z,942.8
2017-05-29T06:52:48.899Z,942.8
2017-05-29T06:53:57.051Z,942.8
2017-05-29T06:55:04.958Z,942.8
2017-05-29T06:56:13.044Z,942.8
2017-05-29T06:57:21.130Z,942.8
2017-05-29T06:58:29.338Z,942.8
2017-05-29T06:59:37.427Z,942.7
2017-05-29T07:00:45.394Z,942.8
2017-05-29T07:01:53.479Z,942.8
2017-05-29T07:03:01.567Z,942.8
2017-05-29T07:04:09.711Z,942.8
2017-05-29T07:05:17.743Z,942.8
2017-05-29T07:06:26.012Z,942.8
2017-05-29T07:07:34.116Z,942.8
2017-05-29T07:08:42.005Z,942.8
2017-05-29T07:09:50.214Z,942.8
2017-05-29T07:10:58.182Z,942.8
2017-05-29T07:12:06.268Z,942.8
2017-05-29T07:13:14.471Z,942.8
2017-05-29T07:14:22.448Z,942.7
2017-05-29T07:15:30.654Z,942.8
2017-05-29T07:16:38.620Z,942.7
2017-05-29T07:17:46.708Z,942.7
2017-05-29T07:18:54.857Z,942.8
2017-05-29T07:20:02.953Z,942.8
2017-05-29T07:21:11.030Z,942.8
2017-05-29T07:22:19.057Z,942.8
2017-05-29T07:23:27.148Z,942.8
2017-05-29T07:24:35.240Z,942.8
2017-05-29T07:25:43.336Z,942.8
2017-05-29T07:26:51.534Z,942.8
2017-05-29T07:27:59.500Z,942.8
2017-05-29T07:29:07.585Z,942.8
2017-05-29T07:30:15.672Z,942.8
2017-05-29T07:31:23.878Z,942.8
2017-05-29T07:32:31.965Z,942.8
2017-05-29T07:33:39.933Z,942.7
2017-05-29T07:34:48.024Z,942.7
2017-05-29T07:35:56.284Z,942.7
2017-05-29T07:37:04.199Z,942.7
2017-05-29T07:38:12.442Z,942.7
2017-05-29T07:39:20.374Z,942.7
2017-05-29T07:40:28.461Z,942.8
2017-05-29T07:41:36.603Z,942.7
2017-05-29T07:42:44.639Z,942.7
2017-05-29T07:43:52.850Z,942.7
2017-05-29T07:45:00.816Z,942.7
2017-05-29T07:46:08.905Z,942.7
2017-05-29T07:47:17.114Z,942.7
2017-05-29T07:48:25.257Z,942.7
2017-05-29T07:49:33.475Z,942.7
2017-05-29T07:50:41.254Z,942.7
2017-05-29T07:51:49.342Z,942.7
2017-05-29T07:52:57.431Z,942.7
2017-05-29T07:54:05.518Z,942.7
2017-05-29T07:55:13.758Z,942.7
2017-05-29T07:56:21.692Z,942.6
2017-05-29T07:57:29.780Z,942.7
2017-05-29T07:58:37.875Z,942.7
2017-05-29T07:59:45.958Z,942.6
2017-05-29T08:00:54.231Z,942.6
2017-05-29T08:02:02.129Z,942.6
2017-05-29T08:03:10.337Z,942.6
2017-05-29T08:04:18.305Z,942.6
2017-05-29T08:05:26.392Z,942.6
2017-05-29T08:06:34.602Z,942.6
2017-05-29T08:07:42.568Z,942.6
2017-05-29T08:08:50.655Z,942.6
2017-05-29T08:09:58.741Z,942.6
2017-05-29T08:11:06.831Z,942.6
2017-05-29T08:12:15.037Z,942.6
2017-05-29T08:13:23.035Z,942.6
2017-05-29T08:14:31.094Z,942.7
2017-05-29T08:15:39.182Z,942.6
2017-05-29T08:16:47.270Z,942.6
2017-05-29T08:17:55.478Z,942.6
2017-05-29T08:19:03.564Z,942.6
2017-05-29T08:20:11.530Z,942.6
2017-05-29T08:21:19.619Z,942.6
2017-05-29T08:22:27.717Z,942.6
2017-05-29T08:23:35.851Z,942.6
2017-05-29T08:24:43.883Z,942.6
2017-05-29T08:25:51.974Z,942.6
2017-05-29T08:27:00.067Z,942.6
2017-05-29T08:28:08.151Z,942.6
2017-05-29T08:29:16.357Z,942.6
2017-05-29T08:30:24.323Z,942.5
2017-05-29T08:31:32.411Z,942.6
2017-05-29T08:32:40.499Z,942.5
2017-05-29T08:33:48.588Z,942.5
2017-05-29T08:34:56.795Z,942.5
2017-05-29T08:36:04.765Z,942.5
2017-05-29T08:37:12.852Z,942.5
2017-05-29T08:38:20.957Z,942.5
2017-05-29T08:39:29.033Z,942.5
2017-05-29T08:40:37.174Z,942.5
2017-05-29T08:41:45.204Z,942.5
2017-05-29T08:42:53.303Z,942.5
2017-05-29T08:44:01.395Z,942.5
2017-05-29T08:45:09.484Z,942.5
2017-05-29T08:46:17.686Z,942.5
2017-05-29T08:47:25.655Z,942.5
2017-05-29T08:48:33.741Z,942.5
2017-05-29T08:49:41.833Z,942.5
2017-05-29T08:50:50.048Z,942.5
2017-05-29T08:51:58.064Z,942.5
2017-05-29T08:53:06.095Z,942.5
2017-05-29T08:54:14.184Z,942.5
2017-05-29T08:55:22.409Z,942.5
2017-05-29T08:56:30.359Z,942.5
2017-05-29T08:57:38.571Z,942.4
2017-05-29T08:58:46.544Z,942.4
2017-05-29T08:59:54.630Z,942.5
2017-05-29T09:01:02.719Z,942.5
2017-05-29T09:02:10.861Z,942.4
2017-05-29T09:03:19.018Z,942.4
2017-05-29T09:04:26.984Z,942.4
2017-05-29T09:05:35.073Z,942.4
2017-05-29T09:06:43.285Z,942.4
2017-05-29T09:07:51.249Z,942.4
2017-05-29T09:08:59.392Z,942.4
2017-05-29T09:10:07.426Z,942.4
2017-05-29T09:11:15.515Z,942.4
2017-05-29T09:12:23.694Z,942.4
2017-05-29T09:13:31.698Z,942.4
2017-05-29T09:14:39.902Z,942.4
2017-05-29T09:15:47.868Z,942.4
2017-05-29T09:16:55.957Z,942.3
2017-05-29T09:18:04.167Z,942.4
2017-05-29T09:19:12.266Z,942.4
2017-05-29T09:20:20.348Z,942.4
2017-05-29T09:21:28.318Z,942.4
2017-05-29T09:22:36.524Z,942.4
2017-05-29T09:23:44.492Z,942.4
2017-05-29T09:24:52.581Z,942.4
2017-05-29T09:26:00.725Z,942.3
2017-05-29T09:27:08.757Z,942.4
2017-05-29T09:28:16.847Z,942.3
2017-05-29T09:29:24.934Z,942.4
2017-05-29T09:30:33.072Z,942.4
2017-05-29T09:31:41.291Z,942.3
2017-05-29T09:32:49.206Z,942.3
2017-05-29T09:33:57.290Z,942.4
2017-05-29T09:35:05.387Z,942.4
2017-05-29T09:36:13.467Z,942.4
2017-05-29T09:37:21.676Z,942.4
2017-05-29T09:38:29.702Z,942.4
2017-05-29T09:39:37.732Z,942.4
2017-05-29T09:40:45.821Z,942.4
2017-05-29T09:41:54.110Z,942.3
2017-05-29T09:43:02.119Z,942.3
2017-05-29T09:44:10.093Z,942.3
2017-05-29T09:45:18.183Z,942.3
2017-05-29T09:46:26.274Z,942.3
2017-05-29T09:47:34.502Z,942.3
2017-05-29T09:48:42.556Z,942.3
2017-05-29T09:49:50.538Z,942.4
2017-05-29T09:50:58.625Z,942.3
2017-05-29T09:52:06.711Z,942.3
2017-05-29T09:53:14.802Z,942.3
2017-05-29T09:54:23.072Z,942.3
2017-05-29T09:55:30.983Z,942.2
2017-05-29T09:56:39.066Z,942.2
2017-05-29T09:57:47.160Z,942.2
2017-05-29T09:58:55.245Z,942.3
2017-05-29T10:00:03.489Z,942.2
2017-05-29T10:01:11.424Z,942.2
2017-05-29T10:02:19.514Z,942.2
2017-05-29T10:03:27.602Z,942.3
2017-05-29T10:04:35.687Z,942.2
2017-05-29T10:05:43.964Z,942.2
2017-05-29T10:06:51.868Z,942.2
2017-05-29T10:07:59.952Z,942.2
2017-05-29T10:09:08.042Z,942.2
2017-05-29T10:10:16.251Z,942.1
2017-05-29T10:11:24.340Z,942.2
2017-05-29T10:12:32.307Z,942.2
2017-05-29T10:13:40.397Z,942.2
2017-05-29T10:14:48.484Z,942.1
2017-05-29T10:15:56.572Z,942.2
2017-05-29T10:17:04.914Z,942.2
2017-05-29T10:18:12.752Z,942.1
2017-05-29T10:19:20.841Z,942.2
2017-05-29T10:20:28.927Z,942.2
2017-05-29T10:21:37.022Z,942.1
2017-05-29T10:22:45.266Z,942.2
2017-05-29T10:23:53.340Z,942.2
2017-05-29T10:25:01.321Z,942.2
2017-05-29T10:26:09.499Z,942.2
2017-05-29T10:27:17.466Z,942.2
2017-05-29T10:28:25.612Z,942.2
2017-05-29T10:29:33.671Z,942.2
2017-05-29T10:30:41.735Z,942.2
2017-05-29T10:31:49.824Z,942.2
2017-05-29T10:32:57.907Z,942.2
2017-05-29T10:34:06.120Z,942.1
2017-05-29T10:35:14.168Z,942.1
2017-05-29T10:36:22.288Z,942.1
2017-05-29T10:37:30.264Z,942.1
2017-05-29T10:38:38.352Z,942.1
2017-05-29T10:39:46.575Z,942.1
2017-05-29T10:40:54.528Z,942.1
2017-05-29T10:42:02.675Z,942.1
2017-05-29T10:44:18.794Z,942.0
2017-05-29T10:45:26.938Z,942.0
2017-05-29T10:46:34.971Z,942.0
2017-05-29T10:47:43.117Z,942.0
2017-05-29T10:48:51.222Z,942.0
2017-05-29T10:49:59.235Z,942.0
2017-05-29T10:51:07.454Z,942.0
2017-05-29T10:52:15.415Z,942.0
2017-05-29T10:53:23.505Z,942.0
2017-05-29T10:54:31.592Z,942.0
2017-05-29T10:55:39.682Z,942.0
2017-05-29T10:56:47.825Z,941.9
2017-05-29T10:57:55.985Z,941.9
2017-05-29T10:59:03.953Z,942.0
2017-05-29T11:00:12.042Z,941.9
2017-05-29T11:01:20.137Z,941.9
2017-05-29T11:02:28.577Z,941.9
2017-05-29T11:03:36.309Z,941.9
2017-05-29T11:04:44.534Z,941.9
2017-05-29T11:05:52.627Z,941.9
2017-05-29T11:07:00.575Z,941.9
2017-05-29T11:08:08.719Z,941.9
2017-05-29T11:09:16.755Z,941.9
2017-05-29T11:10:24.881Z,941.9
2017-05-29T11:11:32.993Z,941.9
2017-05-29T11:12:41.023Z,941.9
2017-05-29T11:13:49.238Z,941.9
2017-05-29T11:14:57.206Z,942.0
2017-05-29T11:16:05.295Z,941.9
2017-05-29T11:17:13.381Z,941.9
2017-05-29T11:18:21.472Z,941.9
2017-05-29T11:19:29.679Z,941.9
2017-05-29T11:20:37.649Z,941.9
2017-05-29T11:21:45.738Z,941.9
2017-05-29T11:22:53.838Z,941.8
2017-05-29T11:24:01.915Z,941.8
2017-05-29T11:25:10.127Z,941.9
2017-05-29T11:26:18.102Z,941.9
2017-05-29T11:27:26.195Z,941.9
2017-05-29T11:28:34.476Z,941.9
2017-05-29T11:29:42.495Z,941.9
2017-05-29T11:30:50.520Z,941.9
2017-05-29T11:31:58.552Z,941.8
2017-05-29T11:33:06.641Z,941.8
2017-05-29T11:34:15.043Z,941.8
2017-05-29T11:35:23.423Z,941.8
2017-05-29T11:36:31.028Z,941.8
2017-05-29T11:37:38.997Z,941.8
2017-05-29T11:38:47.169Z,941.7
2017-05-29T11:39:55.175Z,941.7
2017-05-29T11:41:03.352Z,941.7
2017-05-29T11:42:11.498Z,941.7
2017-05-29T11:43:19.441Z,941.7
2017-05-29T11:44:28.200Z,941.7
2017-05-29T11:45:36.642Z,941.6
2017-05-29T11:46:43.742Z,941.6
2017-05-29T11:47:51.856Z,941.6
2017-05-29T11:48:59.886Z,941.5
2017-05-29T11:50:07.978Z,941.5
2017-05-29T11:51:16.067Z,941.5
2017-05-29T11:52:24.157Z,941.5
2017-05-29T11:53:32.362Z,941.5
2017-05-29T11:54:40.334Z,941.5
2017-05-29T11:55:48.919Z,941.5
2017-05-29T11:56:56.744Z,941.5
2017-05-29T11:58:05.270Z,941.5
2017-05-29T11:59:12.745Z,941.5
2017-05-29T12:00:20.778Z,941.5
2017-05-29T12:01:29.123Z,941.5
2017-05-29T12:02:36.966Z,941.4
2017-05-29T12:03:45.146Z,941.4
2017-05-29T12:04:53.202Z,941.4
2017-05-29T12:06:01.234Z,941.4
2017-05-29T12:07:09.330Z,941.5
2017-05-29T12:08:17.704Z,941.5
2017-05-29T12:09:26.165Z,941.5
2017-05-29T12:10:33.712Z,941.4
2017-05-29T12:11:41.873Z,941.4
2017-05-29T12:12:50.105Z,941.4
2017-05-29T12:13:57.863Z,941.4
2017-05-29T12:15:05.952Z,941.3
2017-05-29T12:16:14.169Z,941.4
2017-05-29T12:17:22.251Z,941.3
2017-05-29T12:18:30.788Z,941.3
2017-05-29T12:19:38.668Z,941.3
2017-05-29T12:20:46.632Z,941.2
2017-05-29T12:21:54.541Z,941.2
2017-05-29T12:23:02.575Z,941.2
2017-05-29T12:24:10.665Z,941.2
2017-05-29T12:25:18.752Z,941.2
2017-05-29T12:26:26.842Z,941.3
2017-05-29T12:27:35.092Z,941.2
2017-05-29T12:28:43.300Z,941.2
2017-05-29T12:29:51.488Z,941.3
2017-05-29T12:30:59.205Z,941.3
2017-05-29T12:32:07.291Z,941.2
2017-05-29T12:33:17.512Z,941.2
2017-05-29T12:34:23.471Z,941.2
2017-05-29T12:35:31.804Z,941.2
2017-05-29T12:36:39.650Z,941.2
2017-05-29T12:37:47.740Z,941.2
2017-05-29T12:38:55.948Z,941.1
2017-05-29T12:40:04.024Z,941.2
2017-05-29T12:41:12.015Z,941.2
2017-05-29T12:42:20.103Z,941.2
2017-05-29T12:43:28.680Z,941.1
2017-05-29T12:44:36.458Z,941.1
2017-05-29T12:45:44.372Z,941.1
2017-05-29T12:46:52.459Z,941.1
2017-05-29T12:48:00.550Z,941.1
2017-05-29T12:49:08.695Z,941.1
2017-05-29T12:50:17.429Z,941.1
2017-05-29T12:51:24.817Z,941.1
2017-05-29T12:52:32.919Z,941.1
2017-05-29T12:53:41.004Z,941.1
2017-05-29T12:54:49.376Z,941.1
2017-05-29T12:55:57.302Z,941.1
2017-05-29T12:57:05.379Z,941.1
2017-05-29T12:58:13.467Z,941.1
2017-05-29T12:59:21.449Z,941.1
2017-05-29T13:00:29.535Z,941.1
2017-05-29T13:01:38.495Z,941.1
2017-05-29T13:02:45.810Z,941.1
2017-05-29T13:03:54.030Z,941.1
2017-05-29T13:05:03.909Z,941.1
2017-05-29T13:06:09.989Z,941.0
2017-05-29T13:07:18.332Z,941.0
2017-05-29T13:08:26.569Z,941.1
2017-05-29T13:09:34.803Z,941.0
2017-05-29T13:10:42.422Z,941.0
2017-05-29T13:11:50.438Z,941.1
2017-05-29T13:12:59.312Z,941.1
2017-05-29T13:14:06.661Z,941.0
2017-05-29T13:15:14.705Z,941.0
2017-05-29T13:16:23.118Z,941.0
2017-05-29T13:17:30.887Z,941.1
2017-05-29T13:18:39.101Z,941.0
2017-05-29T13:19:47.070Z,941.0
2017-05-29T13:20:55.213Z,941.1
2017-05-29T13:22:03.411Z,941.1
2017-05-29T13:23:11.748Z,941.0
2017-05-29T13:24:20.263Z,941.0
2017-05-29T13:25:27.513Z,941.1
2017-05-29T13:26:35.628Z,941.1
2017-05-29T13:27:43.694Z,941.0
2017-05-29T13:28:51.785Z,941.1
2017-05-29T13:29:59.990Z,941.0
2017-05-29T13:31:07.967Z,941.0
2017-05-29T13:32:16.055Z,941.0
2017-05-29T13:33:24.147Z,941.0
2017-05-29T13:34:32.320Z,941.0
2017-05-29T13:35:40.444Z,941.0
2017-05-29T13:36:48.723Z,941.0
2017-05-29T13:37:56.503Z,941.0
2017-05-29T13:39:04.592Z,940.9
2017-05-29T13:40:12.685Z,941.0
2017-05-29T13:41:20.892Z,940.9
2017-05-29T13:42:28.951Z,941.0
2017-05-29T13:43:37.060Z,940.9
2017-05-29T13:44:45.065Z,940.9
2017-05-29T13:45:53.144Z,940.9
2017-05-29T13:47:01.351Z,940.9
2017-05-29T13:48:09.320Z,940.9
2017-05-29T13:49:17.442Z,940.8
2017-05-29T13:50:25.497Z,940.9
2017-05-29T13:51:33.586Z,940.8
2017-05-29T13:52:41.797Z,940.8
2017-05-29T13:53:49.768Z,940.8
2017-05-29T13:54:57.861Z,940.8
2017-05-29T13:56:05.949Z,940.8
2017-05-29T13:57:14.037Z,940.7
2017-05-29T13:58:22.247Z,940.7
2017-05-29T13:59:30.361Z,940.7
2017-05-29T14:00:38.465Z,940.7
2017-05-29T14:01:46.393Z,940.7
2017-05-29T14:02:54.484Z,940.7
2017-05-29T14:04:02.696Z,940.7
2017-05-29T14:05:10.664Z,940.6
2017-05-29T14:07:26.848Z,940.6
2017-05-29T14:08:35.057Z,940.6
2017-05-29T14:09:43.090Z,940.6
2017-05-29T14:10:51.113Z,940.6
2017-05-29T14:11:59.328Z,940.6
2017-05-29T14:13:07.441Z,940.6
2017-05-29T14:14:15.387Z,940.6
2017-05-29T14:15:23.598Z,940.6
2017-05-29T14:16:31.563Z,940.6
2017-05-29T14:17:39.656Z,940.6
2017-05-29T14:18:47.840Z,940.5
2017-05-29T14:19:55.837Z,940.5
2017-05-29T14:21:03.983Z,940.5
2017-05-29T14:22:12.017Z,940.5
2017-05-29T14:23:20.107Z,940.4
2017-05-29T14:24:28.401Z,940.5
2017-05-29T14:25:36.377Z,940.5
2017-05-29T14:26:44.495Z,940.5
2017-05-29T14:27:52.466Z,940.5
2017-05-29T14:29:00.555Z,940.4
2017-05-29T14:30:08.646Z,940.4
2017-05-29T14:31:16.736Z,940.4
2017-05-29T14:32:24.945Z,940.4
2017-05-29T14:33:32.919Z,940.4
2017-05-29T14:34:41.004Z,940.4
2017-05-29T14:35:49.091Z,940.4
2017-05-29T14:36:57.183Z,940.4
2017-05-29T14:38:05.391Z,940.3
2017-05-29T14:39:13.364Z,940.4